Time;durP1;ratioP1;P1;durP2;ratioP2;P2;SDS_P1;SDS_P2;PMS_P1;PMS_P2;Temp;Humidity;BMP_temperature;BMP_pressure;BME280_temperature;BME280_humidity;BME280_pressure;Samples;Min_cycle;Max_cycle;Signal;HPM_P1;HPM_P2
2023/06/01 00:01:49;;;;;;;10.63;4.20;;;12.00;99.90;;;;;;5095106;28;20490;-72
2023/06/01 00:04:15;;;;;;;12.80;4.13;;;12.00;99.90;;;;;;5112783;28;20100;-72
2023/06/01 00:06:40;;;;;;;12.30;3.97;;;12.00;99.90;;;;;;5095053;28;20043;-72
2023/06/01 00:09:07;;;;;;;10.20;3.93;;;12.00;99.90;;;;;;5094898;28;20045;-73
2023/06/01 00:11:33;;;;;;;13.50;4.03;;;12.00;99.90;;;;;;5094700;28;20036;-73
2023/06/01 00:13:59;;;;;;;15.40;4.13;;;12.00;99.90;;;;;;5094768;28;20282;-72
2023/06/01 00:16:25;;;;;;;11.17;3.77;;;12.00;99.90;;;;;;5112632;28;20043;-73
2023/06/01 00:18:52;;;;;;;12.03;4.03;;;12.00;99.90;;;;;;5095125;28;20369;-72
2023/06/01 00:21:19;;;;;;;12.80;4.70;;;12.00;99.90;;;;;;5113041;28;20289;-72
2023/06/01 00:23:45;;;;;;;12.63;4.83;;;12.00;99.90;;;;;;5116481;28;20618;-71
2023/06/01 00:26:12;;;;;;;13.73;4.37;;;12.00;99.90;;;;;;5098168;28;20782;-72
2023/06/01 00:28:37;;;;;;;14.03;5.07;;;12.00;99.90;;;;;;5098517;28;20286;-72
2023/06/01 00:31:03;;;;;;;10.90;4.70;;;12.00;99.90;;;;;;5098209;28;20599;-72
2023/06/01 00:33:29;;;;;;;11.63;4.47;;;12.00;99.90;;;;;;5116084;28;20047;-72
2023/06/01 00:35:55;;;;;;;11.90;4.90;;;12.00;99.90;;;;;;5116345;28;20043;-72
2023/06/01 00:38:20;;;;;;;12.47;4.53;;;12.00;99.90;;;;;;5064627;28;20146;-72
2023/06/01 00:40:50;;;;;;;14.70;4.63;;;12.00;99.90;;;;;;5116186;28;20369;-72
2023/06/01 00:43:16;;;;;;;12.10;4.60;;;12.00;99.90;;;;;;5097580;28;20126;-72
2023/06/01 00:45:41;;;;;;;15.17;5.07;;;12.00;99.90;;;;;;5115766;28;20278;-72
2023/06/01 00:48:07;;;;;;;13.50;5.13;;;12.00;99.90;;;;;;5115994;28;20278;-71
2023/06/01 00:50:33;;;;;;;12.93;4.80;;;12.00;99.90;;;;;;5097533;28;20961;-72
2023/06/01 00:53:01;;;;;;;11.93;4.60;;;12.00;99.90;;;;;;5116174;28;20281;-71
2023/06/01 00:55:27;;;;;;;15.60;4.80;;;11.90;99.90;;;;;;5097763;28;20050;-72
2023/06/01 00:57:55;;;;;;;11.03;5.17;;;11.90;99.90;;;;;;5080965;28;20277;-71
2023/06/01 01:00:22;;;;;;;12.17;4.80;;;11.90;99.90;;;;;;5115529;28;20274;-72
2023/06/01 01:02:48;;;;;;;19.33;4.23;;;11.90;99.90;;;;;;5097630;28;20294;-72
2023/06/01 01:05:16;;;;;;;9.57;3.83;;;11.90;99.90;;;;;;5115836;28;20334;-71
2023/06/01 01:07:56;;;;;;;10.43;4.73;;;11.90;99.90;;;;;;5097650;28;20289;-71
2023/06/01 01:10:41;;;;;;;15.30;4.80;;;11.90;99.90;;;;;;5080676;28;20337;-72
2023/06/01 01:13:23;;;;;;;12.20;4.07;;;11.90;99.90;;;;;;5080750;28;20285;-71
2023/06/01 01:16:20;;;;;;;11.03;4.10;;;11.90;99.90;;;;;;5097871;28;20391;-72
2023/06/01 01:18:54;;;;;;;12.87;4.20;;;11.90;99.90;;;;;;5114892;28;20286;-71
2023/06/01 01:21:33;;;;;;;12.47;4.50;;;11.80;99.90;;;;;;5097134;28;20376;-72
2023/06/01 01:24:18;;;;;;;18.67;4.90;;;11.90;99.90;;;;;;5084334;28;20299;-72
2023/06/01 01:27:24;;;;;;;13.53;4.27;;;11.80;99.90;;;;;;5074060;28;20298;-71
2023/06/01 01:29:54;;;;;;;11.40;4.70;;;11.80;99.90;;;;;;5074659;28;20381;-71
2023/06/01 01:32:23;;;;;;;17.23;5.30;;;11.90;99.90;;;;;;5074425;28;20048;-73
2023/06/01 01:34:51;;;;;;;11.13;4.20;;;11.80;99.90;;;;;;5074513;28;20291;-72
2023/06/01 01:37:16;;;;;;;14.50;5.20;;;11.80;99.90;;;;;;5074515;28;20282;-72
2023/06/01 01:39:42;;;;;;;11.30;4.83;;;11.80;99.90;;;;;;5073201;28;20291;-72
2023/06/01 01:42:08;;;;;;;13.77;5.40;;;11.80;99.90;;;;;;5072744;28;20070;-72
2023/06/01 01:44:34;;;;;;;11.93;5.50;;;11.80;99.90;;;;;;5072801;28;20059;-72
2023/06/01 01:47:46;;;;;;;12.33;5.23;;;11.70;99.90;;;;;;5073357;28;20428;-72
2023/06/01 01:50:13;;;;;;;15.13;5.63;;;11.70;99.90;;;;;;5042822;28;20053;-72
2023/06/01 01:52:41;;;;;;;12.10;5.60;;;11.70;99.90;;;;;;5073858;28;20283;-72
2023/06/01 01:55:09;;;;;;;12.10;4.97;;;11.80;99.90;;;;;;5074335;28;20305;-72
2023/06/01 01:57:36;;;;;;;16.57;6.10;;;11.80;99.90;;;;;;5072230;28;20322;-72
2023/06/01 02:00:03;;;;;;;12.80;5.53;;;11.80;99.90;;;;;;5073959;28;20651;-72
2023/06/01 02:02:30;;;;;;;10.97;5.30;;;11.80;99.90;;;;;;5072577;28;20305;-72
2023/06/01 02:04:56;;;;;;;9.60;4.17;;;11.80;99.90;;;;;;5074157;28;20282;-72
2023/06/01 02:07:22;;;;;;;11.50;4.93;;;11.70;99.90;;;;;;5073893;28;20309;-72
2023/06/01 02:09:47;;;;;;;15.13;5.40;;;11.70;99.90;;;;;;5072308;28;20051;-72
2023/06/01 02:12:13;;;;;;;13.70;5.13;;;11.70;99.90;;;;;;5073843;28;20048;-72
2023/06/01 02:14:39;;;;;;;13.70;5.37;;;11.70;99.90;;;;;;5055860;28;20056;-72
2023/06/01 02:17:05;;;;;;;10.30;5.43;;;11.70;99.90;;;;;;5072798;28;20060;-72
2023/06/01 02:19:31;;;;;;;13.97;5.40;;;11.70;99.90;;;;;;5073361;28;20123;-72
2023/06/01 02:21:57;;;;;;;11.83;4.23;;;11.70;99.90;;;;;;5073521;28;20389;-72
2023/06/01 02:24:22;;;;;;;14.73;5.87;;;11.70;99.90;;;;;;5072120;28;20059;-71
2023/06/01 02:26:51;;;;;;;13.27;5.20;;;11.70;99.90;;;;;;5072240;28;20066;-72
2023/06/01 02:29:19;;;;;;;11.93;5.50;;;11.80;99.90;;;;;;5072490;28;20052;-72
2023/06/01 02:31:45;;;;;;;10.57;4.90;;;11.80;99.90;;;;;;5055732;28;20298;-72
2023/06/01 02:34:11;;;;;;;12.23;5.13;;;11.80;99.90;;;;;;5073388;28;20287;-72
2023/06/01 02:36:37;;;;;;;14.50;5.80;;;11.80;99.90;;;;;;5072069;28;20290;-72
2023/06/01 02:39:02;;;;;;;17.77;5.90;;;11.80;99.90;;;;;;5072449;28;20040;-72
2023/06/01 02:41:28;;;;;;;13.93;5.23;;;11.80;99.90;;;;;;5072936;28;20045;-72
2023/06/01 02:43:54;;;;;;;13.10;4.73;;;11.70;99.90;;;;;;5072167;28;20048;-71
2023/06/01 02:46:20;;;;;;;13.03;5.70;;;11.80;99.90;;;;;;5073159;28;20055;-71
2023/06/01 02:48:46;;;;;;;12.20;5.40;;;11.80;99.90;;;;;;5072974;28;20044;-72
2023/06/01 02:51:12;;;;;;;14.17;6.03;;;11.80;99.90;;;;;;5073276;28;20091;-71
2023/06/01 02:53:41;;;;;;;10.97;4.80;;;11.70;99.90;;;;;;5072808;28;20328;-72
2023/06/01 02:56:08;;;;;;;10.33;4.73;;;11.80;99.90;;;;;;5072013;28;20279;-72
2023/06/01 02:58:34;;;;;;;14.00;5.63;;;11.90;99.90;;;;;;5071957;28;20309;-72
2023/06/01 03:01:00;;;;;;;12.13;5.40;;;11.90;99.90;;;;;;5073268;28;20291;-72
2023/06/01 03:03:26;;;;;;;16.90;5.23;;;11.90;99.90;;;;;;5073065;28;20052;-71
2023/06/01 03:05:53;;;;;;;11.17;4.70;;;11.90;99.90;;;;;;5072519;28;20322;-72
2023/06/01 03:08:19;;;;;;;13.00;3.70;;;11.90;99.90;;;;;;5072966;28;20775;-73
2023/06/01 03:10:45;;;;;;;12.10;4.40;;;11.80;99.90;;;;;;5072667;28;20283;-73
2023/06/01 03:13:11;;;;;;;10.80;3.73;;;11.80;99.90;;;;;;5072345;28;20627;-73
2023/06/01 03:15:39;;;;;;;10.53;4.13;;;11.80;99.90;;;;;;5071673;28;20287;-71
2023/06/01 03:18:05;;;;;;;9.37;4.07;;;11.80;99.90;;;;;;5071909;28;20279;-71
2023/06/01 03:20:32;;;;;;;8.23;3.57;;;11.80;99.90;;;;;;5071696;28;20279;-73
2023/06/01 03:22:57;;;;;;;7.43;3.00;;;11.90;99.90;;;;;;5073068;28;20045;-72
2023/06/01 03:25:24;;;;;;;9.20;3.60;;;11.90;99.90;;;;;;5113410;28;20646;-72
2023/06/01 03:27:50;;;;;;;9.27;4.10;;;11.90;99.90;;;;;;5078230;28;20063;-72
2023/06/01 03:30:16;;;;;;;9.43;3.53;;;11.90;99.90;;;;;;5095154;28;20331;-72
2023/06/01 03:32:43;;;;;;;12.67;4.07;;;11.90;99.90;;;;;;5112745;28;20277;-72
2023/06/01 03:35:11;;;;;;;9.87;3.17;;;11.90;99.90;;;;;;5095404;28;20090;-71
2023/06/01 03:37:39;;;;;;;11.97;3.07;;;11.90;99.90;;;;;;5095012;28;20286;-72
2023/06/01 03:40:10;;;;;;;9.57;3.70;;;11.90;99.90;;;;;;5113190;28;20293;-72
2023/06/01 03:42:43;;;;;;;5.40;2.80;;;11.90;99.90;;;;;;5113021;28;20740;-73
2023/06/01 03:45:10;;;;;;;10.80;3.60;;;11.90;99.90;;;;;;5113224;28;20273;-72
2023/06/01 03:47:36;;;;;;;11.97;3.13;;;11.90;99.90;;;;;;5094791;28;20280;-73
2023/06/01 03:50:03;;;;;;;9.37;3.23;;;11.90;99.90;;;;;;5095046;28;20360;-72
2023/06/01 03:52:30;;;;;;;9.70;2.90;;;11.90;99.90;;;;;;5112773;28;20565;-72
2023/06/01 03:54:58;;;;;;;9.20;3.50;;;11.90;99.90;;;;;;5094679;28;20277;-72
2023/06/01 03:57:23;;;;;;;11.03;4.33;;;11.90;99.90;;;;;;5115416;28;20300;-72
2023/06/01 03:59:50;;;;;;;8.43;3.17;;;11.90;99.90;;;;;;5082056;28;20281;-72
2023/06/01 04:02:17;;;;;;;7.10;3.00;;;12.00;99.90;;;;;;5098649;28;20130;-72
2023/06/01 04:04:45;;;;;;;6.50;2.80;;;12.00;99.90;;;;;;5116666;28;20286;-72
2023/06/01 04:07:14;;;;;;;7.60;2.83;;;12.00;99.90;;;;;;5082641;28;20269;-72
2023/06/01 04:09:40;;;;;;;8.97;3.20;;;12.00;99.90;;;;;;5098431;28;20368;-73
2023/06/01 04:12:06;;;;;;;9.10;3.40;;;12.00;99.90;;;;;;5098794;28;20297;-72
2023/06/01 04:14:32;;;;;;;8.87;3.23;;;12.00;99.90;;;;;;5098764;28;20319;-72
2023/06/01 04:16:58;;;;;;;11.10;4.00;;;12.10;99.90;;;;;;5116430;28;20108;-72
2023/06/01 04:19:23;;;;;;;7.63;3.23;;;12.10;99.90;;;;;;5116620;28;20048;-72
2023/06/01 04:21:49;;;;;;;11.77;3.73;;;12.10;99.90;;;;;;5097930;28;20036;-72
2023/06/01 04:24:16;;;;;;;9.97;3.23;;;12.20;99.90;;;;;;5098283;28;20051;-72
2023/06/01 04:26:41;;;;;;;10.70;3.57;;;12.20;99.90;;;;;;5098248;28;20171;-72
2023/06/01 04:29:08;;;;;;;11.90;4.03;;;12.20;99.90;;;;;;5116483;28;20302;-73
2023/06/01 04:31:34;;;;;;;11.93;3.70;;;12.20;99.90;;;;;;5116339;28;20498;-73
2023/06/01 04:34:01;;;;;;;8.57;3.07;;;12.10;99.90;;;;;;5097889;28;20331;-71
2023/06/01 04:36:29;;;;;;;8.27;3.37;;;12.20;99.90;;;;;;5081707;28;20100;-71
2023/06/01 04:38:55;;;;;;;7.90;3.80;;;12.10;99.90;;;;;;5116003;28;20274;-71
2023/06/01 04:41:21;;;;;;;10.57;3.90;;;12.20;99.90;;;;;;5116397;28;20303;-71
2023/06/01 04:43:52;;;;;;;10.70;4.07;;;12.20;99.90;;;;;;5097684;28;20046;-71
2023/06/01 04:46:23;;;;;;;10.80;3.50;;;12.20;99.90;;;;;;5098006;28;20292;-71
2023/06/01 04:48:53;;;;;;;9.90;3.73;;;12.20;99.90;;;;;;5097697;28;20278;-71
2023/06/01 04:51:19;;;;;;;7.83;3.40;;;12.10;99.90;;;;;;5098034;28;20641;-71
2023/06/01 04:53:49;;;;;;;9.07;3.43;;;12.10;99.90;;;;;;5097656;28;20685;-72
2023/06/01 04:56:17;;;;;;;13.57;3.20;;;12.10;99.90;;;;;;5097886;28;20306;-72
2023/06/01 04:58:44;;;;;;;13.90;3.53;;;12.20;99.90;;;;;;5098079;28;20651;-73
2023/06/01 05:01:13;;;;;;;10.00;3.57;;;12.20;99.90;;;;;;5097625;28;20285;-72
2023/06/01 05:03:39;;;;;;;9.33;3.63;;;12.10;99.90;;;;;;5081226;28;20335;-72
2023/06/01 05:06:05;;;;;;;10.70;3.23;;;12.10;99.90;;;;;;5097349;28;20378;-73
2023/06/01 05:08:31;;;;;;;8.40;3.30;;;12.20;99.90;;;;;;5080263;28;20488;-72
2023/06/01 05:10:57;;;;;;;11.37;4.00;;;12.20;99.90;;;;;;5115214;28;20281;-73
2023/06/01 05:13:22;;;;;;;10.40;3.70;;;12.20;99.90;;;;;;5097408;28;20626;-72
2023/06/01 05:15:48;;;;;;;9.33;3.13;;;12.30;99.90;;;;;;5115172;28;20047;-73
2023/06/01 05:18:14;;;;;;;10.77;3.50;;;12.40;99.90;;;;;;5097539;28;20052;-72
2023/06/01 05:20:40;;;;;;;10.00;3.80;;;12.40;99.90;;;;;;5097152;28;20522;-72
2023/06/01 05:23:05;;;;;;;8.47;3.37;;;12.40;99.90;;;;;;5096642;28;20043;-72
2023/06/01 05:25:31;;;;;;;10.30;3.37;;;12.40;99.90;;;;;;5080474;28;20047;-72
2023/06/01 05:27:57;;;;;;;10.07;3.37;;;12.40;99.90;;;;;;5114641;28;20402;-72
2023/06/01 05:30:22;;;;;;;8.40;3.27;;;12.40;99.90;;;;;;5080137;28;20104;-72
2023/06/01 05:32:48;;;;;;;8.97;3.23;;;12.30;99.90;;;;;;5114560;28;20040;-74
2023/06/01 05:35:14;;;;;;;11.17;3.27;;;12.30;99.90;;;;;;5097216;28;20078;-72
2023/06/01 05:37:40;;;;;;;9.40;3.30;;;12.30;99.90;;;;;;5080368;28;20392;-72
2023/06/01 05:40:08;;;;;;;15.13;3.93;;;12.40;99.90;;;;;;5115157;28;20043;-72
2023/06/01 05:42:34;;;;;;;12.27;4.93;;;12.40;99.90;;;;;;5114889;28;20048;-72
2023/06/01 05:44:59;;;;;;;9.80;3.80;;;12.30;99.90;;;;;;5096749;28;20285;-73
2023/06/01 05:47:25;;;;;;;10.37;4.07;;;12.40;99.90;;;;;;5096922;28;20131;-73
2023/06/01 05:49:51;;;;;;;10.80;3.63;;;12.40;99.90;;;;;;5079799;28;20063;-74
2023/06/01 05:52:16;;;;;;;8.80;3.40;;;12.50;99.90;;;;;;5080085;28;20051;-73
2023/06/01 05:54:42;;;;;;;9.57;3.90;;;12.50;99.90;;;;;;5096823;28;20047;-73
2023/06/01 05:57:08;;;;;;;13.87;4.27;;;12.50;99.90;;;;;;5095982;28;20039;-73
2023/06/01 05:59:34;;;;;;;15.37;3.97;;;12.60;99.90;;;;;;5114681;28;20045;-73
2023/06/01 06:01:59;;;;;;;11.77;3.70;;;12.60;99.90;;;;;;5095980;28;20039;-73
2023/06/01 06:04:25;;;;;;;8.17;3.73;;;12.70;99.90;;;;;;5079933;28;20155;-73
2023/06/01 06:06:51;;;;;;;10.73;3.30;;;12.70;99.90;;;;;;5096403;28;20044;-73
2023/06/01 06:09:17;;;;;;;10.23;3.43;;;12.80;99.90;;;;;;5079579;28;20105;-73
2023/06/01 06:11:43;;;;;;;14.13;3.17;;;12.80;99.90;;;;;;5079664;28;20753;-73
2023/06/01 06:14:11;;;;;;;9.00;3.13;;;12.80;99.90;;;;;;5079429;28;20122;-73
2023/06/01 06:16:37;;;;;;;10.33;3.23;;;12.80;99.90;;;;;;5096190;28;20285;-73
2023/06/01 06:19:02;;;;;;;10.43;3.77;;;12.90;99.90;;;;;;5113312;28;20365;-73
2023/06/01 06:21:28;;;;;;;9.40;3.20;;;12.90;99.90;;;;;;5114326;28;20043;-73
2023/06/01 06:23:58;;;;;;;9.43;3.50;;;12.90;99.90;;;;;;5095844;28;20051;-74
2023/06/01 06:26:26;;;;;;;9.53;3.87;;;12.80;99.90;;;;;;5096771;28;20091;-73
2023/06/01 06:28:52;;;;;;;7.43;3.43;;;12.90;99.90;;;;;;5079076;28;20642;-73
2023/06/01 06:31:18;;;;;;;7.93;2.57;;;12.90;99.90;;;;;;5095653;28;20293;-73
2023/06/01 06:33:43;;;;;;;7.20;2.53;;;12.80;99.90;;;;;;5095996;28;20055;-73
2023/06/01 06:36:09;;;;;;;7.93;2.87;;;12.80;99.90;;;;;;5095691;28;20468;-73
2023/06/01 06:38:35;;;;;;;10.63;3.07;;;12.80;99.90;;;;;;5062583;28;20047;-73
2023/06/01 06:41:00;;;;;;;13.43;4.10;;;12.80;99.90;;;;;;5113601;28;20040;-73
2023/06/01 06:43:26;;;;;;;8.47;3.43;;;12.70;99.90;;;;;;5095732;28;20132;-73
2023/06/01 06:45:52;;;;;;;12.30;3.50;;;12.80;99.90;;;;;;5113872;28;20390;-73
2023/06/01 06:48:17;;;;;;;9.10;3.13;;;12.80;99.90;;;;;;5078846;28;20109;-73
2023/06/01 06:50:44;;;;;;;9.00;3.13;;;12.80;99.90;;;;;;5095783;28;20044;-73
2023/06/01 06:53:11;;;;;;;12.73;3.90;;;12.80;99.90;;;;;;5095609;28;20119;-73
2023/06/01 06:55:37;;;;;;;13.00;3.43;;;12.90;99.90;;;;;;5095733;28;20710;-72
2023/06/01 06:58:02;;;;;;;5.90;2.50;;;13.00;99.90;;;;;;5113517;28;20320;-73
2023/06/01 07:00:28;;;;;;;9.73;2.50;;;13.00;99.90;;;;;;5095391;28;20039;-73
2023/06/01 07:02:55;;;;;;;9.47;3.13;;;13.00;99.90;;;;;;5095570;28;20069;-73
2023/06/01 07:05:20;;;;;;;11.67;3.27;;;13.00;99.90;;;;;;5095025;28;20044;-73
2023/06/01 07:07:46;;;;;;;9.07;2.97;;;13.10;99.90;;;;;;5113491;28;20288;-73
2023/06/01 07:10:12;;;;;;;8.10;2.87;;;13.10;99.90;;;;;;5113185;28;20130;-73
2023/06/01 07:12:38;;;;;;;12.67;3.27;;;13.20;99.90;;;;;;5113487;28;20083;-73
2023/06/01 07:15:05;;;;;;;10.13;2.73;;;13.20;99.90;;;;;;5113145;28;20051;-74
2023/06/01 07:17:30;;;;;;;7.97;2.70;;;13.30;99.90;;;;;;5113462;28;20047;-71
2023/06/01 07:19:57;;;;;;;8.80;3.13;;;13.30;99.90;;;;;;5095649;28;20284;-71
2023/06/01 07:22:23;;;;;;;10.87;2.97;;;13.40;99.90;;;;;;5095129;28;20052;-71
2023/06/01 07:24:49;;;;;;;13.17;3.20;;;13.30;99.90;;;;;;5113526;28;20432;-72
2023/06/01 07:27:15;;;;;;;9.33;2.90;;;13.40;99.90;;;;;;5095118;28;20071;-72
2023/06/01 07:29:41;;;;;;;8.03;4.07;;;13.40;99.90;;;;;;5095673;28;20475;-72
2023/06/01 07:32:07;;;;;;;8.90;2.77;;;13.40;99.90;;;;;;5098932;28;20051;-72
2023/06/01 07:34:35;;;;;;;6.13;2.43;;;13.40;99.90;;;;;;5099862;28;20387;-72
2023/06/01 07:37:01;;;;;;;7.43;2.40;;;13.40;99.90;;;;;;5099321;28;20088;-73
2023/06/01 07:39:27;;;;;;;6.90;2.37;;;13.40;99.90;;;;;;5117135;28;20340;-72
2023/06/01 07:41:53;;;;;;;8.60;2.30;;;13.50;99.90;;;;;;5099282;28;20329;-72
2023/06/01 07:44:20;;;;;;;6.73;1.80;;;13.50;99.90;;;;;;5117188;28;20048;-72
2023/06/01 07:46:46;;;;;;;8.00;2.10;;;13.60;99.90;;;;;;5099275;28;20471;-72
2023/06/01 07:49:13;;;;;;;5.73;1.83;;;13.60;99.90;;;;;;5117093;28;20309;-72
2023/06/01 07:51:43;;;;;;;6.83;2.43;;;13.60;99.90;;;;;;5117169;28;20318;-69
2023/06/01 07:54:09;;;;;;;4.17;2.03;;;13.60;99.90;;;;;;5116798;28;20368;-71
2023/06/01 07:56:35;;;;;;;4.93;2.17;;;13.50;99.90;;;;;;5117093;28;20415;-71
2023/06/01 07:59:01;;;;;;;8.33;2.00;;;13.50;99.90;;;;;;5117157;28;20118;-71
2023/06/01 08:01:27;;;;;;;5.00;1.57;;;13.60;99.90;;;;;;5116675;28;20454;-71
2023/06/01 08:03:52;;;;;;;6.70;1.80;;;13.60;99.90;;;;;;5098984;28;20088;-75
2023/06/01 08:06:22;;;;;;;7.63;1.60;;;13.60;99.90;;;;;;5116791;28;20130;-74
2023/06/01 08:08:49;;;;;;;6.13;1.80;;;13.60;99.90;;;;;;5099061;28;20185;-75
2023/06/01 08:11:15;;;;;;;4.37;1.87;;;13.50;99.90;;;;;;5098688;28;20740;-78
2023/06/01 08:13:41;;;;;;;4.87;2.00;;;13.50;99.90;;;;;;5082107;28;20277;-77
2023/06/01 08:16:08;;;;;;;7.90;2.10;;;13.50;99.90;;;;;;5116847;28;20288;-77
2023/06/01 08:18:34;;;;;;;4.47;2.00;;;13.60;99.90;;;;;;5098548;28;20342;-78
2023/06/01 08:21:00;;;;;;;6.83;2.20;;;13.60;99.90;;;;;;5098496;28;20287;-77
2023/06/01 08:23:26;;;;;;;5.40;2.13;;;13.70;99.90;;;;;;5064425;28;20309;-78
2023/06/01 08:25:52;;;;;;;4.93;1.93;;;13.80;99.90;;;;;;5098698;28;20293;-77
2023/06/01 08:28:18;;;;;;;6.67;2.17;;;13.90;99.90;;;;;;5098228;28;20285;-75
2023/06/01 08:30:43;;;;;;;6.43;1.73;;;13.90;99.90;;;;;;5116804;28;20391;-78
2023/06/01 08:33:09;;;;;;;5.00;1.70;;;13.90;99.90;;;;;;5098347;28;20452;-78
2023/06/01 08:35:35;;;;;;;5.60;1.57;;;14.00;99.90;;;;;;5116586;28;20168;-78
2023/06/01 08:38:01;;;;;;;5.37;2.00;;;14.00;99.90;;;;;;5098409;28;20510;-79
2023/06/01 08:40:27;;;;;;;4.87;1.90;;;14.00;99.90;;;;;;5115979;28;20059;-78
2023/06/01 08:43:12;;;;;;;7.63;2.37;;;14.00;99.90;;;;;;5097422;28;20730;-79
2023/06/01 08:45:38;;;;;;;9.27;2.63;;;14.00;99.90;;;;;;5098367;28;20290;-77
2023/06/01 08:48:08;;;;;;;7.70;2.33;;;13.90;99.90;;;;;;5098204;28;20289;-78
2023/06/01 08:50:34;;;;;;;6.57;2.83;;;13.90;99.90;;;;;;5097957;28;20857;-78
2023/06/01 08:53:01;;;;;;;9.77;3.73;;;13.80;99.90;;;;;;5116214;28;20285;-78
2023/06/01 08:55:26;;;;;;;8.17;2.90;;;13.70;99.90;;;;;;5098012;28;20290;-80
2023/06/01 08:57:53;;;;;;;10.13;3.50;;;13.70;99.90;;;;;;5080883;28;20285;-80
2023/06/01 09:00:20;;;;;;;9.63;3.23;;;13.70;99.90;;;;;;5115408;28;20498;-80
2023/06/01 09:02:46;;;;;;;10.50;2.87;;;13.70;99.90;;;;;;5116167;28;20305;-77
2023/06/01 09:05:13;;;;;;;12.23;3.13;;;13.70;99.90;;;;;;5097764;28;20659;-78
2023/06/01 09:07:39;;;;;;;9.83;3.27;;;13.70;99.90;;;;;;5080563;28;20035;-79
2023/06/01 09:10:06;;;;;;;15.10;3.57;;;13.70;99.90;;;;;;5097292;28;20841;-70
2023/06/01 09:12:34;;;;;;;10.50;3.57;;;13.70;99.90;;;;;;5114813;28;20277;-71
2023/06/01 09:15:16;;;;;;;13.30;3.33;;;13.80;99.90;;;;;;5113744;28;20281;-71
2023/06/01 09:17:46;;;;;;;14.83;3.70;;;13.80;99.90;;;;;;5095052;28;20777;-69
2023/06/01 09:20:14;;;;;;;13.93;3.57;;;13.80;99.90;;;;;;5115088;28;20771;-71
2023/06/01 09:22:40;;;;;;;9.73;3.03;;;13.90;99.90;;;;;;5114722;28;20290;-71
2023/06/01 09:25:07;;;;;;;9.93;2.73;;;13.90;99.90;;;;;;5115155;28;20290;-71
2023/06/01 09:27:51;;;;;;;11.87;3.13;;;13.90;99.90;;;;;;5114512;28;20324;-71
2023/06/01 09:30:19;;;;;;;9.83;3.37;;;13.90;99.90;;;;;;5112578;28;20305;-68
2023/06/01 09:32:50;;;;;;;13.50;2.80;;;13.90;99.90;;;;;;5096768;28;20301;-69
2023/06/01 09:35:36;;;;;;;11.27;3.90;;;14.00;99.90;;;;;;5112416;28;20366;-70
2023/06/01 09:38:05;;;;;;;10.60;3.00;;;13.90;99.90;;;;;;5094718;28;20357;-70
2023/06/01 09:40:32;;;;;;;11.03;2.70;;;13.90;99.90;;;;;;5094462;28;20321;-69
2023/06/01 09:42:58;;;;;;;9.67;2.80;;;13.80;99.90;;;;;;5094528;28;20836;-74
2023/06/01 09:45:24;;;;;;;16.20;2.90;;;13.80;99.90;;;;;;5110290;28;20761;-74
2023/06/01 09:47:52;;;;;;;10.10;2.43;;;13.80;99.90;;;;;;5076727;28;20720;-72
2023/06/01 09:50:38;;;;;;;11.13;3.53;;;13.80;99.90;;;;;;5094504;28;20313;-71
2023/06/01 09:53:05;;;;;;;13.13;3.77;;;13.90;99.90;;;;;;5059666;28;20262;-71
2023/06/01 09:55:31;;;;;;;10.37;2.70;;;13.90;99.90;;;;;;5101928;28;20821;-77
2023/06/01 09:58:17;;;;;;;11.20;2.90;;;13.90;99.90;;;;;;5092319;28;20281;-74
2023/06/01 10:00:42;;;;;;;;;;;14.00;99.90;;;;;;5094164;28;20285;-75
2023/06/01 10:03:09;;;;;;;9.53;2.80;;;14.10;99.90;;;;;;5110262;28;19973;-72
2023/06/01 10:05:35;;;;;;;8.17;3.10;;;14.20;99.90;;;;;;5090839;28;20089;-76
2023/06/01 10:08:02;;;;;;;10.63;3.03;;;14.20;99.90;;;;;;5093217;28;20289;-75
2023/06/01 10:10:28;;;;;;;8.40;2.57;;;14.20;99.90;;;;;;5094912;28;20373;-76
2023/06/01 10:12:54;;;;;;;8.07;3.17;;;14.30;99.90;;;;;;5111006;28;20372;-76
2023/06/01 10:15:20;;;;;;;8.93;2.40;;;14.40;99.90;;;;;;5109943;28;20069;-75
2023/06/01 10:17:46;;;;;;;10.57;2.73;;;14.40;99.90;;;;;;5092349;28;20080;-75
2023/06/01 10:20:13;;;;;;;9.33;3.30;;;14.40;99.90;;;;;;5078515;28;20318;-75
2023/06/01 10:22:42;;;;;;;10.63;3.07;;;14.40;99.90;;;;;;5110422;28;20297;-75
2023/06/01 10:25:10;;;;;;;9.53;2.70;;;14.50;99.90;;;;;;5109286;28;20679;-75
2023/06/01 10:27:41;;;;;;;8.47;2.90;;;14.50;99.90;;;;;;5094016;28;20289;-75
2023/06/01 10:30:09;;;;;;;10.00;2.93;;;14.50;99.90;;;;;;5087883;28;20277;-75
2023/06/01 10:32:41;;;;;;;8.37;2.63;;;14.40;99.90;;;;;;5078607;28;20639;-75
2023/06/01 10:35:10;;;;;;;9.23;3.03;;;14.50;99.90;;;;;;5112970;28;20344;-75
2023/06/01 10:37:36;;;;;;;9.47;3.10;;;14.50;99.90;;;;;;5113748;28;20308;-74
2023/06/01 10:40:21;;;;;;;11.00;2.90;;;14.60;99.90;;;;;;5095985;28;20733;-76
2023/06/01 10:42:47;;;;;;;12.60;2.80;;;14.70;99.90;;;;;;5095358;28;20047;-76
2023/06/01 10:45:39;;;;;;;8.80;3.07;;;14.80;99.90;;;;;;5113865;28;20035;-76
2023/06/01 10:48:07;;;;;;;8.93;3.00;;;14.80;99.90;;;;;;5113602;28;20761;-76
2023/06/01 10:50:35;;;;;;;8.43;2.83;;;14.90;99.90;;;;;;5095553;28;20289;-77
2023/06/01 10:53:27;;;;;;;9.37;2.40;;;14.90;99.90;;;;;;5096222;28;20285;-76
2023/06/01 10:56:17;;;;;;;8.60;2.93;;;14.90;99.90;;;;;;5095225;28;20296;-76
2023/06/01 10:58:43;;;;;;;12.33;3.90;;;15.00;99.90;;;;;;5078529;28;20289;-73
2023/06/01 11:01:10;;;;;;;7.87;2.50;;;15.00;99.90;;;;;;5095630;28;20291;-75
2023/06/01 11:03:45;;;;;;;9.30;3.33;;;15.00;99.90;;;;;;5113020;28;20506;-79
2023/06/01 11:06:35;;;;;;;8.10;4.40;;;15.00;99.90;;;;;;5078743;28;20716;-75
2023/06/01 11:09:05;;;;;;;9.00;2.57;;;14.90;99.90;;;;;;5096025;28;20077;-76
2023/06/01 11:11:51;;;;;;;10.60;3.30;;;14.90;99.90;;;;;;5113473;28;20281;-76
2023/06/01 11:14:24;;;;;;;8.63;3.07;;;15.00;99.90;;;;;;5091228;28;20815;-75
2023/06/01 11:16:52;;;;;;;11.67;3.03;;;15.00;99.90;;;;;;5076647;28;21148;-75
2023/06/01 11:19:24;;;;;;;8.73;2.90;;;14.90;99.90;;;;;;5112283;28;20312;-74
2023/06/01 11:22:05;;;;;;;9.50;3.17;;;15.00;99.90;;;;;;5109637;28;20329;-73
2023/06/01 11:24:36;;;;;;;8.90;2.87;;;15.10;99.90;;;;;;5110676;28;20300;-73
2023/06/01 11:27:10;;;;;;;6.70;2.10;;;15.10;99.90;;;;;;5111301;28;20290;-75
2023/06/01 11:29:37;;;;;;;12.27;2.25;;;15.10;99.90;;;;;;5113003;28;20277;-74
2023/06/01 11:32:05;;;;;;;7.43;2.47;;;15.30;99.90;;;;;;5108861;28;20048;-73
2023/06/01 11:34:34;;;;;;;14.10;3.13;;;15.30;99.90;;;;;;5110231;28;20321;-74
2023/06/01 11:37:01;;;;;;;8.60;2.33;;;15.30;99.90;;;;;;5075849;28;20298;-73
2023/06/01 11:39:28;;;;;;;12.20;3.03;;;15.20;99.90;;;;;;5112767;28;20559;-73
2023/06/01 11:42:10;;;;;;;8.30;2.97;;;15.20;99.90;;;;;;5108338;28;20336;-74
2023/06/01 11:44:41;;;;;;;8.23;2.50;;;15.20;99.90;;;;;;5109988;28;20047;-75
2023/06/01 11:47:08;;;;;;;13.30;2.90;;;15.20;99.90;;;;;;5112920;28;20107;-73
2023/06/01 11:49:44;;;;;;;7.83;2.40;;;15.30;99.90;;;;;;5112933;28;20851;-74
2023/06/01 11:52:10;;;;;;;10.37;3.13;;;15.30;99.90;;;;;;5092974;28;20092;-74
2023/06/01 11:54:37;;;;;;;9.10;2.30;;;15.20;99.90;;;;;;5112027;28;20047;-75
2023/06/01 11:57:03;;;;;;;4.73;2.47;;;15.10;99.90;;;;;;5094744;28;20613;-73
2023/06/01 11:59:38;;;;;;;7.83;2.40;;;15.10;99.90;;;;;;5094647;28;20285;-75
2023/06/01 12:02:22;;;;;;;7.82;2.15;;;15.00;99.90;;;;;;5092316;28;20426;-74
2023/06/01 12:04:59;;;;;;;9.70;2.30;;;15.10;99.90;;;;;;5093254;28;20484;-73
2023/06/01 12:07:26;;;;;;;6.63;2.27;;;15.10;99.90;;;;;;5112870;28;20277;-75
2023/06/01 12:09:57;;;;;;;8.03;2.67;;;15.10;99.90;;;;;;5112455;28;20277;-75
2023/06/01 12:12:24;;;;;;;5.33;1.90;;;15.20;99.90;;;;;;5092223;28;20825;-75
2023/06/01 12:14:51;;;;;;;8.20;2.37;;;15.30;99.90;;;;;;5111469;28;20281;-74
2023/06/01 12:17:17;;;;;;;8.53;2.63;;;15.30;99.90;;;;;;5095176;28;20281;-74
2023/06/01 12:19:50;;;;;;;6.70;2.90;;;15.40;99.90;;;;;;5098376;28;20096;-74
2023/06/01 12:22:16;;;;;;;8.43;2.60;;;15.40;99.90;;;;;;5113980;28;20491;-73
2023/06/01 12:24:46;;;;;;;14.50;2.87;;;15.30;99.90;;;;;;5096934;28;20300;-74
2023/06/01 12:27:21;;;;;;;13.57;3.40;;;15.20;99.90;;;;;;5098069;28;20051;-73
2023/06/01 12:29:50;;;;;;;11.43;2.73;;;15.30;99.90;;;;;;5115938;28;20284;-74
2023/06/01 12:32:17;;;;;;;7.27;2.67;;;15.30;99.90;;;;;;5115175;28;20044;-75
2023/06/01 12:34:53;;;;;;;9.90;3.10;;;15.30;99.90;;;;;;5115007;28;20495;-74
2023/06/01 12:37:20;;;;;;;11.90;2.23;;;15.40;99.90;;;;;;5116246;28;20054;-75
2023/06/01 12:39:53;;;;;;;10.47;2.87;;;15.30;99.90;;;;;;5097573;28;20050;-75
2023/06/01 12:42:20;;;;;;;8.90;2.30;;;15.30;99.90;;;;;;5078710;28;20047;-73
2023/06/01 12:44:53;;;;;;;6.50;2.13;;;15.40;99.90;;;;;;5115105;28;20086;-75
2023/06/01 12:47:18;;;;;;;15.07;3.37;;;15.40;99.90;;;;;;5097772;28;20044;-70